Time;durP1;ratioP1;P1;durP2;ratioP2;P2;SDS_P1;SDS_P2;PMS_P1;PMS_P2;Temp;Humidity;BMP_temperature;BMP_pressure;BME280_temperature;BME280_humidity;BME280_pressure;Samples;Min_cycle;Max_cycle;Signal;HPM_P1;HPM_P2
2021/01/23 00:00:02;;;;;;;39.40;19.03;;;1.20;99.90;;;;;;5019663;28;20217;-75
2021/01/23 00:02:28;;;;;;;42.10;19.00;;;1.20;99.90;;;;;;5016217;28;20227;-77
2021/01/23 00:04:54;;;;;;;45.03;19.90;;;1.20;99.90;;;;;;5038500;28;20756;-73
2021/01/23 00:07:21;;;;;;;39.73;18.93;;;1.20;99.90;;;;;;5037254;28;20231;-76
2021/01/23 00:09:47;;;;;;;42.37;19.87;;;1.20;99.90;;;;;;5036900;28;20203;-74
2021/01/23 00:12:23;;;;;;;46.13;20.97;;;1.20;99.90;;;;;;5030667;28;20256;-73
2021/01/23 00:14:50;;;;;;;41.53;18.47;;;1.20;99.90;;;;;;5032116;28;20508;-75
2021/01/23 00:17:16;;;;;;;43.30;18.70;;;1.40;99.90;;;;;;5038283;28;20235;-76
2021/01/23 00:19:43;;;;;;;41.77;19.30;;;1.50;99.90;;;;;;5022357;28;20339;-76
2021/01/23 00:22:09;;;;;;;44.87;20.13;;;1.60;99.90;;;;;;5018643;28;20739;-75
2021/01/23 00:24:35;;;;;;;41.47;18.87;;;1.50;99.90;;;;;;5021079;28;20239;-75
2021/01/23 00:27:02;;;;;;;45.10;19.67;;;1.50;99.90;;;;;;5021204;28;20729;-77
2021/01/23 00:29:28;;;;;;;39.13;19.57;;;1.50;99.90;;;;;;5019028;28;20470;-75
2021/01/23 00:31:56;;;;;;;41.47;18.80;;;1.40;99.90;;;;;;5022453;28;20322;-75
2021/01/23 00:34:22;;;;;;;44.80;19.17;;;1.40;99.90;;;;;;5025697;28;20454;-74
2021/01/23 00:36:49;;;;;;;41.63;19.47;;;1.40;99.90;;;;;;5020902;28;20263;-76
2021/01/23 00:39:15;;;;;;;37.33;18.83;;;1.40;99.90;;;;;;5022534;28;20199;-76
2021/01/23 00:41:42;;;;;;;44.27;20.20;;;1.40;99.90;;;;;;5022869;28;20676;-75
2021/01/23 00:44:08;;;;;;;42.93;19.60;;;1.30;99.90;;;;;;5023170;28;20215;-76
2021/01/23 00:47:15;;;;;;;42.00;18.00;;;1.30;99.90;;;;;;5022947;28;20282;-75
2021/01/23 00:49:42;;;;;;;39.27;18.37;;;1.30;99.90;;;;;;5030815;28;20660;-75
2021/01/23 00:52:08;;;;;;;41.47;19.60;;;1.20;99.90;;;;;;5020679;28;20227;-76
2021/01/23 00:54:34;;;;;;;40.73;18.50;;;1.20;99.90;;;;;;5022792;28;20621;-77
2021/01/23 00:57:01;;;;;;;42.47;19.37;;;1.20;99.90;;;;;;5022345;28;20255;-76
2021/01/23 00:59:27;;;;;;;38.87;17.90;;;1.20;99.90;;;;;;5027868;28;20207;-76
2021/01/23 01:01:54;;;;;;;40.47;18.53;;;1.30;99.90;;;;;;5018000;28;20689;-75
2021/01/23 01:04:21;;;;;;;42.30;19.40;;;1.20;99.90;;;;;;5022544;28;20938;-75
2021/01/23 01:06:47;;;;;;;42.60;18.27;;;1.30;99.90;;;;;;5028460;28;20208;-76
2021/01/23 01:09:14;;;;;;;40.90;18.90;;;1.20;99.90;;;;;;5022287;28;20734;-76
2021/01/23 01:11:40;;;;;;;37.70;17.37;;;1.20;99.90;;;;;;5022080;28;20318;-76
2021/01/23 01:14:07;;;;;;;41.07;17.63;;;1.20;99.90;;;;;;5021165;28;20204;-76
2021/01/23 01:16:54;;;;;;;43.47;19.70;;;1.20;99.90;;;;;;5021722;28;20670;-75
2021/01/23 01:19:21;;;;;;;38.00;18.70;;;1.20;99.90;;;;;;5023438;28;20207;-76
2021/01/23 01:21:48;;;;;;;49.13;18.77;;;1.20;99.90;;;;;;5011959;28;20314;-76
2021/01/23 01:24:14;;;;;;;44.10;18.73;;;1.20;99.90;;;;;;5022770;28;20304;-76
2021/01/23 01:26:41;;;;;;;39.07;18.37;;;1.20;99.90;;;;;;5021039;28;20208;-76
2021/01/23 01:29:07;;;;;;;42.87;18.60;;;1.20;99.90;;;;;;5022050;28;20654;-76
2021/01/23 01:31:34;;;;;;;39.73;18.57;;;1.20;99.90;;;;;;5012523;28;20560;-75
2021/01/23 01:34:01;;;;;;;42.40;18.80;;;1.20;99.90;;;;;;5018506;28;20203;-76
2021/01/23 01:36:28;;;;;;;43.00;18.60;;;1.20;99.90;;;;;;5018064;28;20325;-77
2021/01/23 01:38:54;;;;;;;38.47;18.07;;;1.20;99.90;;;;;;5021292;28;20235;-77
2021/01/23 01:41:21;;;;;;;37.23;17.77;;;1.20;99.90;;;;;;5021578;28;20592;-76
2021/01/23 01:43:47;;;;;;;41.40;17.57;;;1.20;99.90;;;;;;5017365;28;20309;-76
2021/01/23 01:48:42;;;;;;;36.97;17.83;;;1.10;99.90;;;;;;4975808;28;20213;-73
2021/01/23 01:51:08;;;;;;;44.60;17.73;;;1.20;99.90;;;;;;4972241;28;20205;-72
2021/01/23 01:53:38;;;;;;;37.33;17.60;;;1.20;99.90;;;;;;4975837;28;20306;-72
2021/01/23 01:56:06;;;;;;;36.80;17.73;;;1.20;99.90;;;;;;4976610;28;20209;-72
2021/01/23 01:58:32;;;;;;;41.03;18.40;;;1.10;99.90;;;;;;4974530;28;20231;-73
2021/01/23 02:00:59;;;;;;;40.10;18.33;;;1.20;99.90;;;;;;4978736;28;20663;-72
2021/01/23 02:03:59;;;;;;;37.17;17.70;;;1.10;99.90;;;;;;4977140;28;20383;-73
2021/01/23 02:06:37;;;;;;;39.37;17.10;;;1.10;99.90;;;;;;4978570;28;20247;-72
2021/01/23 02:09:12;;;;;;;41.30;17.47;;;1.10;99.90;;;;;;4978297;28;20213;-71
2021/01/23 02:11:49;;;;;;;40.53;17.77;;;1.20;99.90;;;;;;4974846;28;20240;-70
2021/01/23 02:14:24;;;;;;;39.80;18.17;;;1.10;99.90;;;;;;4974932;28;20297;-71
2021/01/23 02:16:53;;;;;;;41.73;19.07;;;1.10;99.90;;;;;;4978690;28;20225;-71
2021/01/23 02:19:42;;;;;;;39.10;17.70;;;1.10;99.90;;;;;;4976180;28;20689;-71
2021/01/23 02:22:24;;;;;;;40.83;18.40;;;1.00;99.90;;;;;;4968313;28;20966;-71
2021/01/23 02:24:53;;;;;;;38.50;18.23;;;1.00;99.90;;;;;;4975369;28;20240;-70
2021/01/23 02:27:35;;;;;;;41.63;18.90;;;1.00;99.90;;;;;;4979622;28;20269;-72
2021/01/23 02:30:11;;;;;;;46.17;18.97;;;1.00;99.90;;;;;;4985335;28;20212;-70
2021/01/23 02:32:40;;;;;;;50.43;19.60;;;1.00;99.90;;;;;;4979600;28;20259;-70
2021/01/23 02:35:10;;;;;;;52.20;19.50;;;1.00;99.90;;;;;;4975584;28;20247;-71
2021/01/23 02:37:38;;;;;;;45.70;19.07;;;1.10;99.90;;;;;;4977140;28;20314;-71
2021/01/23 02:40:06;;;;;;;48.67;20.30;;;1.10;99.90;;;;;;4978791;28;20240;-70
2021/01/23 02:42:32;;;;;;;46.30;18.83;;;1.00;99.90;;;;;;4976323;28;20393;-71
2021/01/23 02:44:59;;;;;;;48.27;20.87;;;1.10;99.90;;;;;;4976622;28;20201;-71
2021/01/23 02:47:25;;;;;;;50.67;19.43;;;1.10;99.90;;;;;;4980019;28;20316;-70
2021/01/23 02:49:53;;;;;;;50.03;18.93;;;1.10;99.90;;;;;;4975210;28;20296;-70
2021/01/23 02:52:27;;;;;;;51.80;19.37;;;1.10;99.90;;;;;;4964384;28;20221;-71
2021/01/23 02:54:57;;;;;;;44.57;19.77;;;1.10;99.90;;;;;;4974186;28;20211;-71
2021/01/23 02:57:26;;;;;;;51.63;20.83;;;1.10;99.90;;;;;;4974886;28;20245;-71
2021/01/23 03:00:03;;;;;;;46.27;19.47;;;1.10;99.90;;;;;;4975203;28;20201;-71
2021/01/23 03:02:31;;;;;;;51.27;19.40;;;1.20;99.90;;;;;;4973144;28;20304;-70
2021/01/23 03:05:00;;;;;;;47.47;19.00;;;1.10;99.90;;;;;;4975588;28;20222;-71
2021/01/23 03:07:26;;;;;;;48.07;19.43;;;1.10;99.90;;;;;;4977295;28;20660;-70
2021/01/23 03:09:52;;;;;;;43.73;19.03;;;1.20;99.90;;;;;;4973972;28;20244;-71
2021/01/23 03:12:19;;;;;;;45.90;19.63;;;1.20;99.90;;;;;;4974888;28;20232;-72
2021/01/23 03:14:45;;;;;;;53.13;20.80;;;1.20;99.90;;;;;;4976294;28;20769;-71
2021/01/23 03:17:12;;;;;;;51.50;20.63;;;1.20;99.90;;;;;;4975411;28;20317;-71
2021/01/23 03:19:38;;;;;;;52.57;20.53;;;1.20;99.90;;;;;;4975145;28;20668;-71
2021/01/23 03:22:06;;;;;;;53.57;19.70;;;1.20;99.90;;;;;;4970143;28;20224;-71
2021/01/23 03:24:32;;;;;;;52.13;20.53;;;1.30;99.90;;;;;;4975000;28;20722;-71
2021/01/23 03:26:58;;;;;;;57.23;21.67;;;1.40;99.90;;;;;;4974891;28;20563;-71
2021/01/23 03:29:25;;;;;;;55.97;20.23;;;1.40;99.90;;;;;;4977639;28;20386;-70
2021/01/23 03:31:51;;;;;;;52.30;19.70;;;1.30;99.90;;;;;;4972589;28;20221;-71
2021/01/23 03:34:17;;;;;;;77.37;22.10;;;1.30;99.90;;;;;;4974068;28;20573;-72
2021/01/23 03:36:44;;;;;;;142.83;25.53;;;1.30;99.90;;;;;;4977774;28;20681;-72
2021/01/23 03:39:11;;;;;;;97.23;22.63;;;1.40;99.90;;;;;;4976369;28;20209;-71
2021/01/23 03:41:37;;;;;;;86.13;21.20;;;1.30;99.90;;;;;;4983831;28;20611;-71
2021/01/23 03:44:05;;;;;;;68.27;20.43;;;1.30;99.90;;;;;;4976823;28;20631;-71
2021/01/23 03:46:31;;;;;;;151.17;22.53;;;1.30;99.90;;;;;;4977794;28;20678;-72
2021/01/23 03:48:57;;;;;;;81.47;19.93;;;1.30;99.90;;;;;;4971955;28;20205;-71
2021/01/23 03:51:24;;;;;;;141.40;20.63;;;1.20;99.90;;;;;;4971435;28;20318;-71
2021/01/23 03:53:50;;;;;;;146.90;21.50;;;1.30;99.90;;;;;;4974810;28;20206;-71
2021/01/23 03:56:18;;;;;;;50.30;17.97;;;1.30;99.90;;;;;;4984350;28;20209;-70
2021/01/23 03:58:44;;;;;;;136.87;20.53;;;1.30;99.90;;;;;;4979422;28;20274;-71
2021/01/23 04:01:10;;;;;;;144.30;20.60;;;1.30;99.90;;;;;;4977993;28;20309;-72
2021/01/23 04:03:37;;;;;;;156.73;21.90;;;1.30;99.90;;;;;;4979474;28;20239;-72
2021/01/23 04:06:04;;;;;;;91.63;21.27;;;1.30;99.90;;;;;;4980551;28;20229;-71
2021/01/23 04:08:30;;;;;;;130.43;21.97;;;1.30;99.90;;;;;;4980285;28;20202;-70
2021/01/23 04:10:57;;;;;;;93.23;21.50;;;1.30;99.90;;;;;;4974395;28;20487;-72
2021/01/23 04:13:24;;;;;;;91.23;19.27;;;1.30;99.90;;;;;;4978630;28;20315;-72
2021/01/23 04:15:52;;;;;;;132.37;20.17;;;1.40;99.90;;;;;;4979953;28;20219;-71
2021/01/23 04:18:18;;;;;;;136.30;22.27;;;1.30;99.90;;;;;;4979977;28;20267;-72
2021/01/23 04:20:44;;;;;;;79.80;18.87;;;1.30;99.90;;;;;;4973905;28;20201;-72
2021/01/23 04:23:11;;;;;;;86.63;19.70;;;1.30;99.90;;;;;;4973090;28;20498;-71
2021/01/23 04:25:37;;;;;;;96.63;20.43;;;1.30;99.90;;;;;;4977986;28;20211;-71
2021/01/23 04:28:04;;;;;;;63.57;19.07;;;1.30;99.90;;;;;;4976215;28;20244;-72
2021/01/23 04:30:31;;;;;;;89.50;19.07;;;1.30;99.90;;;;;;4977597;28;20646;-72
2021/01/23 04:32:58;;;;;;;67.63;19.10;;;1.20;99.90;;;;;;4975002;28;20230;-72
2021/01/23 04:35:24;;;;;;;52.43;17.30;;;1.20;99.90;;;;;;4978830;28;20201;-72
2021/01/23 04:37:50;;;;;;;56.93;17.50;;;1.20;99.90;;;;;;4978995;28;20694;-71
2021/01/23 04:40:17;;;;;;;43.40;17.13;;;1.10;99.90;;;;;;4979226;28;20210;-72
2021/01/23 04:42:44;;;;;;;45.80;17.23;;;1.10;99.90;;;;;;4976473;28;20231;-71
2021/01/23 04:45:13;;;;;;;55.67;17.30;;;1.10;99.90;;;;;;4978503;28;20300;-72
2021/01/23 04:47:40;;;;;;;45.90;16.00;;;1.10;99.90;;;;;;4978889;28;20282;-71
2021/01/23 04:50:09;;;;;;;65.37;15.90;;;1.20;99.90;;;;;;4982773;28;20210;-72
2021/01/23 04:52:36;;;;;;;44.20;14.97;;;1.30;99.90;;;;;;4990903;28;20253;-71
2021/01/23 04:55:04;;;;;;;92.40;15.47;;;1.20;99.90;;;;;;4983404;28;20331;-72
2021/01/23 04:57:30;;;;;;;37.93;14.67;;;1.20;99.90;;;;;;4979156;28;20270;-71
2021/01/23 04:59:57;;;;;;;38.03;14.23;;;1.20;99.90;;;;;;4979701;28;20297;-72
2021/01/23 05:02:24;;;;;;;42.10;15.50;;;1.20;99.90;;;;;;4975472;28;20299;-71
2021/01/23 05:04:56;;;;;;;58.23;15.10;;;1.10;99.90;;;;;;4980125;28;20255;-71
2021/01/23 05:07:26;;;;;;;63.37;15.53;;;1.00;99.90;;;;;;4977324;28;20819;-72
2021/01/23 05:09:53;;;;;;;79.70;16.37;;;1.00;99.90;;;;;;4974592;28;20717;-72
2021/01/23 05:12:34;;;;;;;56.60;15.47;;;0.90;99.90;;;;;;4977275;28;20567;-72
2021/01/23 05:15:01;;;;;;;93.63;15.50;;;1.00;99.90;;;;;;4974051;28;20216;-71
2021/01/23 05:17:28;;;;;;;119.10;15.93;;;1.00;99.90;;;;;;4977832;28;20894;-70
2021/01/23 05:19:55;;;;;;;47.10;13.37;;;1.00;99.90;;;;;;4978765;28;20205;-71
2021/01/23 05:22:22;;;;;;;99.27;14.67;;;1.00;99.90;;;;;;4970265;28;20216;-70
2021/01/23 05:24:52;;;;;;;104.17;16.57;;;1.00;99.90;;;;;;4977275;28;20210;-72
2021/01/23 05:27:19;;;;;;;64.00;15.10;;;1.00;99.90;;;;;;4974572;28;20287;-71
2021/01/23 05:29:58;;;;;;;62.23;14.10;;;1.00;99.90;;;;;;4977669;28;20466;-71
2021/01/23 05:32:25;;;;;;;36.33;12.57;;;1.00;99.90;;;;;;4974967;28;20861;-71
2021/01/23 05:34:52;;;;;;;46.73;13.57;;;1.00;99.90;;;;;;4976791;28;20618;-71
2021/01/23 05:37:34;;;;;;;54.30;13.47;;;1.00;99.90;;;;;;4979587;28;20229;-71
2021/01/23 05:40:00;;;;;;;39.23;12.23;;;1.10;99.90;;;;;;4979264;28;20635;-71
2021/01/23 05:42:27;;;;;;;30.70;11.73;;;1.10;99.90;;;;;;4977645;28;20236;-70
2021/01/23 05:45:08;;;;;;;29.00;11.43;;;1.10;99.90;;;;;;4977027;28;20496;-71
2021/01/23 05:47:35;;;;;;;25.97;11.13;;;1.00;99.90;;;;;;4978888;28;20468;-72
2021/01/23 05:50:02;;;;;;;28.30;11.57;;;1.00;99.90;;;;;;4976626;28;20598;-71
2021/01/23 05:52:28;;;;;;;29.80;11.37;;;1.00;99.90;;;;;;4971512;28;20485;-71
2021/01/23 05:54:55;;;;;;;26.47;11.90;;;0.90;99.90;;;;;;4978101;28;20226;-71
2021/01/23 05:57:22;;;;;;;29.20;11.70;;;0.90;99.90;;;;;;4977567;28;20316;-71
2021/01/23 05:59:49;;;;;;;24.70;11.50;;;0.90;99.90;;;;;;4976360;28;20547;-71
2021/01/23 06:02:17;;;;;;;35.37;12.90;;;0.90;99.90;;;;;;4988246;28;20256;-71
2021/01/23 06:04:48;;;;;;;27.77;11.83;;;0.90;99.90;;;;;;4988551;28;20551;-70
2021/01/23 06:07:42;;;;;;;43.87;13.23;;;0.80;99.90;;;;;;4978521;28;20206;-71
2021/01/23 06:10:43;;;;;;;34.57;12.60;;;0.80;99.90;;;;;;4975746;28;20679;-72
2021/01/23 06:13:38;;;;;;;34.57;11.33;;;0.70;99.90;;;;;;4976719;28;21081;-71
2021/01/23 06:16:06;;;;;;;32.90;11.83;;;0.70;99.90;;;;;;4976287;28;20291;-71
2021/01/23 06:18:33;;;;;;;41.27;11.83;;;0.70;99.90;;;;;;4977989;28;20881;-71
2021/01/23 06:21:01;;;;;;;29.03;11.20;;;0.60;99.90;;;;;;4968249;28;20559;-71
2021/01/23 06:23:49;;;;;;;31.07;12.63;;;0.60;99.90;;;;;;4969504;28;20206;-71
2021/01/23 06:26:17;;;;;;;28.83;12.53;;;0.60;99.90;;;;;;4976472;28;20467;-71
2021/01/23 06:28:54;;;;;;;37.90;13.43;;;0.50;99.90;;;;;;4972678;28;20978;-72
2021/01/23 06:31:34;;;;;;;43.63;12.13;;;0.50;99.90;;;;;;4973618;28;20522;-72
2021/01/23 06:34:23;;;;;;;40.50;12.90;;;0.60;99.90;;;;;;4978876;28;20499;-72
2021/01/23 06:36:50;;;;;;;31.63;12.00;;;0.60;99.90;;;;;;4972638;28;20467;-71
2021/01/23 06:39:16;;;;;;;34.50;11.93;;;0.60;99.90;;;;;;4975774;28;20555;-71
2021/01/23 06:41:44;;;;;;;47.77;15.53;;;0.60;99.90;;;;;;4974927;28;20233;-71
2021/01/23 06:44:16;;;;;;;37.00;14.53;;;0.60;99.90;;;;;;4977440;28;20548;-71
2021/01/23 06:46:54;;;;;;;40.30;16.33;;;0.70;99.90;;;;;;4974704;28;20298;-72
2021/01/23 06:49:21;;;;;;;32.77;12.80;;;0.70;99.90;;;;;;4974387;28;20459;-71
2021/01/23 06:51:47;;;;;;;39.50;13.87;;;0.70;99.90;;;;;;4969172;28;20606;-72
2021/01/23 06:54:15;;;;;;;36.87;14.97;;;0.70;99.90;;;;;;4974773;28;20296;-71
2021/01/23 06:56:44;;;;;;;38.33;15.13;;;0.70;99.90;;;;;;4973043;28;21107;-72
2021/01/23 06:59:24;;;;;;;38.63;14.77;;;0.80;99.90;;;;;;4978064;28;20319;-71
2021/01/23 07:02:02;;;;;;;40.40;14.17;;;0.80;99.90;;;;;;4975967;28;20320;-71
2021/01/23 07:04:30;;;;;;;41.77;14.43;;;0.80;99.90;;;;;;4978119;28;20285;-71
2021/01/23 07:06:57;;;;;;;37.47;13.73;;;0.80;99.90;;;;;;4974612;28;20201;-71
2021/01/23 07:09:43;;;;;;;39.20;13.00;;;0.80;99.90;;;;;;4975056;28;20821;-71
2021/01/23 07:12:13;;;;;;;44.10;14.17;;;0.90;99.90;;;;;;4974959;28;20522;-71
2021/01/23 07:14:39;;;;;;;41.00;15.60;;;0.90;99.90;;;;;;4987557;28;20491;-70
2021/01/23 07:17:13;;;;;;;53.50;16.33;;;1.00;99.90;;;;;;4981621;28;20359;-70
2021/01/23 07:19:40;;;;;;;47.83;16.53;;;1.10;99.90;;;;;;4976035;28;20205;-71
2021/01/23 07:22:07;;;;;;;46.23;16.87;;;1.10;99.90;;;;;;4971769;28;20481;-72
2021/01/23 07:24:34;;;;;;;45.17;16.40;;;1.20;99.90;;;;;;4976493;28;20934;-72
2021/01/23 07:27:01;;;;;;;38.30;14.73;;;1.20;99.90;;;;;;4975294;28;20555;-71
2021/01/23 07:29:28;;;;;;;39.40;15.40;;;1.20;99.90;;;;;;4977122;28;20210;-71
2021/01/23 07:31:55;;;;;;;38.50;14.97;;;1.30;99.90;;;;;;4976477;28;20590;-71
2021/01/23 07:34:22;;;;;;;40.80;14.80;;;1.30;99.90;;;;;;4979929;28;20206;-71
2021/01/23 07:36:48;;;;;;;39.03;15.43;;;1.30;99.90;;;;;;4978672;28;20297;-71
2021/01/23 07:39:15;;;;;;;35.60;14.07;;;1.30;99.90;;;;;;4980781;28;20328;-71
2021/01/23 07:41:47;;;;;;;39.07;15.77;;;1.30;99.90;;;;;;4979187;28;21062;-71
2021/01/23 07:44:14;;;;;;;38.50;15.80;;;1.40;99.90;;;;;;4982298;28;20206;-71
2021/01/23 07:46:43;;;;;;;36.93;14.50;;;1.40;99.90;;;;;;4995302;23;20237;-77
2021/01/23 07:49:19;;;;;;;47.40;15.83;;;1.30;99.90;;;;;;5041320;28;20583;-78
2021/01/23 07:51:46;;;;;;;39.97;15.77;;;1.40;99.90;;;;;;5035991;28;20239;-76
2021/01/23 07:54:13;;;;;;;39.00;15.77;;;1.40;99.90;;;;;;5022718;28;20688;-76
2021/01/23 07:56:51;;;;;;;39.30;15.20;;;1.30;99.90;;;;;;5024708;28;20335;-76
2021/01/23 07:59:18;;;;;;;38.07;15.60;;;1.50;99.90;;;;;;5024465;28;20535;-78
2021/01/23 08:01:46;;;;;;;37.77;15.10;;;1.50;99.90;;;;;;5024101;28;20319;-78
2021/01/23 08:04:34;;;;;;;40.97;16.30;;;1.50;99.90;;;;;;5026087;28;20664;-78
2021/01/23 08:07:32;;;;;;;36.43;15.67;;;1.60;99.90;;;;;;5021992;28;20262;-78
2021/01/23 08:10:10;;;;;;;35.77;15.40;;;1.70;99.90;;;;;;4940048;29;20287;-78
2021/01/23 08:12:37;;;;;;;37.03;14.80;;;1.80;99.90;;;;;;5013057;28;20504;-78
2021/01/23 08:15:05;;;;;;;36.60;15.33;;;1.80;99.90;;;;;;5024316;28;20296;-77
2021/01/23 08:17:43;;;;;;;37.50;14.93;;;1.90;99.90;;;;;;5022386;28;20307;-76
2021/01/23 08:20:12;;;;;;;34.67;14.67;;;1.90;99.90;;;;;;5024227;28;20415;-79
2021/01/23 08:23:06;;;;;;;31.07;14.47;;;1.90;99.90;;;;;;5017163;28;20250;-77
2021/01/23 08:25:38;;;;;;;35.70;15.17;;;2.00;99.90;;;;;;4973328;28;20203;-76
2021/01/23 08:28:07;;;;;;;28.23;13.00;;;2.00;99.90;;;;;;5025223;28;20258;-76
2021/01/23 08:30:34;;;;;;;27.83;12.80;;;2.10;99.90;;;;;;5029668;28;20562;-76
2021/01/23 08:33:04;;;;;;;34.43;14.77;;;2.20;99.90;;;;;;5030368;28;20292;-76
2021/01/23 08:35:33;;;;;;;27.80;12.53;;;2.20;99.90;;;;;;5025216;28;20575;-76
2021/01/23 08:37:59;;;;;;;29.37;12.60;;;2.30;99.90;;;;;;5028428;28;20306;-75
2021/01/23 08:40:26;;;;;;;37.13;13.43;;;2.40;99.90;;;;;;5026777;28;20612;-77
2021/01/23 08:42:52;;;;;;;27.97;11.57;;;2.40;99.90;;;;;;5025239;28;20310;-76
2021/01/23 08:45:21;;;;;;;26.43;12.40;;;2.40;99.90;;;;;;5028106;28;20721;-77
2021/01/23 08:47:47;;;;;;;28.73;11.90;;;2.40;99.90;;;;;;5025696;28;20291;-77
2021/01/23 08:50:16;;;;;;;25.73;12.67;;;2.40;99.90;;;;;;5027083;28;20535;-76
2021/01/23 08:52:42;;;;;;;24.67;11.77;;;2.40;99.90;;;;;;5026950;28;20793;-77
2021/01/23 08:55:10;;;;;;;25.03;12.00;;;2.40;99.90;;;;;;5027859;28;20295;-77
2021/01/23 08:57:37;;;;;;;28.43;11.53;;;2.40;99.90;;;;;;5027082;28;20304;-76
2021/01/23 09:00:06;;;;;;;26.57;11.63;;;2.40;99.90;;;;;;5025754;28;20338;-77
2021/01/23 09:02:32;;;;;;;31.93;12.13;;;2.40;99.90;;;;;;5019937;28;20228;-76
2021/01/23 09:04:58;;;;;;;28.33;12.07;;;2.30;99.90;;;;;;5021701;28;20287;-77
2021/01/23 09:07:26;;;;;;;25.17;11.80;;;2.40;99.90;;;;;;5019879;28;20677;-76
2021/01/23 09:09:53;;;;;;;24.33;12.10;;;2.40;99.90;;;;;;5017007;28;20578;-76
2021/01/23 09:12:19;;;;;;;24.07;11.53;;;2.40;99.90;;;;;;5017366;28;20737;-76
2021/01/23 09:14:46;;;;;;;28.27;12.70;;;2.40;99.90;;;;;;5008543;28;20233;-76
2021/01/23 09:17:13;;;;;;;27.43;12.07;;;2.40;99.90;;;;;;4974565;28;20234;-76
2021/01/23 09:19:39;;;;;;;34.10;13.47;;;2.40;99.90;;;;;;4979263;28;20208;-76
2021/01/23 09:22:06;;;;;;;27.03;12.63;;;2.40;99.90;;;;;;4977167;28;20235;-76
2021/01/23 09:24:33;;;;;;;27.53;12.50;;;2.50;99.90;;;;;;4985277;28;20430;-75
2021/01/23 09:27:00;;;;;;;33.90;13.20;;;2.60;99.90;;;;;;4978797;28;20292;-76
2021/01/23 09:29:26;;;;;;;24.97;12.10;;;2.60;99.90;;;;;;4976968;28;20663;-76
2021/01/23 09:31:52;;;;;;;24.20;12.77;;;2.60;99.90;;;;;;4979857;28;20224;-76
2021/01/23 09:34:19;;;;;;;28.43;13.33;;;2.60;99.90;;;;;;4977053;28;20291;-75
2021/01/23 09:36:45;;;;;;;25.43;13.13;;;2.60;99.90;;;;;;4978215;28;20496;-75
2021/01/23 09:39:11;;;;;;;28.90;13.80;;;2.60;99.90;;;;;;4976502;28;20320;-75
2021/01/23 09:41:39;;;;;;;27.40;13.30;;;2.60;99.90;;;;;;4977478;28;20842;-75
2021/01/23 09:44:06;;;;;;;26.50;12.60;;;2.60;99.90;;;;;;4978548;28;20209;-75
2021/01/23 09:46:32;;;;;;;26.20;12.80;;;2.60;99.90;;;;;;4981872;28;20268;-76
2021/01/23 09:48:58;;;;;;;28.27;13.50;;;2.70;99.90;;;;;;4973279;28;20201;-76
2021/01/23 09:51:28;;;;;;;30.70;13.77;;;2.70;99.90;;;;;;4976229;28;20265;-77
2021/01/23 09:53:55;;;;;;;30.73;13.53;;;2.70;99.90;;;;;;4983057;28;20201;-75
2021/01/23 09:56:27;;;;;;;27.73;12.33;;;2.70;99.90;;;;;;4981584;28;20201;-76
2021/01/23 09:58:54;;;;;;;25.97;12.17;;;2.80;99.90;;;;;;4977553;28;20741;-75
2021/01/23 10:01:20;;;;;;;26.53;12.57;;;2.90;99.90;;;;;;4971619;28;20590;-75
2021/01/23 10:03:47;;;;;;;26.40;12.70;;;3.00;99.90;;;;;;4975175;28;20213;-75
2021/01/23 10:06:16;;;;;;;26.83;12.90;;;3.10;99.90;;;;;;4980455;28;20320;-75
2021/01/23 10:08:42;;;;;;;21.23;11.00;;;3.10;99.90;;;;;;4977882;28;20209;-74
2021/01/23 10:11:09;;;;;;;25.87;12.33;;;3.20;99.90;;;;;;4972113;28;20209;-75
2021/01/23 10:13:35;;;;;;;21.67;11.50;;;3.20;99.90;;;;;;4974865;28;20236;-75
2021/01/23 10:16:03;;;;;;;23.57;11.27;;;3.20;99.90;;;;;;4976476;28;20299;-74
2021/01/23 10:18:35;;;;;;;21.07;10.47;;;3.40;99.90;;;;;;4978488;28;20636;-75
2021/01/23 10:21:02;;;;;;;22.73;10.77;;;3.50;99.90;;;;;;4973362;28;20220;-75
2021/01/23 10:23:28;;;;;;;18.63;10.03;;;3.60;99.90;;;;;;4977737;28;20213;-75
2021/01/23 10:25:54;;;;;;;20.67;10.90;;;3.70;99.90;;;;;;4977745;28;20205;-75
2021/01/23 10:28:21;;;;;;;25.07;11.33;;;3.70;99.90;;;;;;4974319;28;21955;-75
2021/01/23 10:30:47;;;;;;;20.27;10.77;;;3.70;99.90;;;;;;4976715;28;20300;-75
2021/01/23 10:33:15;;;;;;;25.33;12.43;;;3.80;99.90;;;;;;4974361;28;20252;-74
2021/01/23 10:35:41;;;;;;;22.73;11.47;;;3.80;99.90;;;;;;4974501;28;20300;-76
2021/01/23 10:38:08;;;;;;;22.37;11.20;;;3.90;99.90;;;;;;4973332;28;20233;-76
2021/01/23 10:40:35;;;;;;;25.20;10.80;;;3.90;99.90;;;;;;4972691;28;20201;-75
2021/01/23 10:43:01;;;;;;;27.23;11.07;;;4.10;99.90;;;;;;4976412;28;20312;-76
2021/01/23 10:45:28;;;;;;;18.37;10.40;;;4.10;99.90;;;;;;4970372;28;20296;-75
2021/01/23 10:47:54;;;;;;;24.37;10.90;;;4.30;99.90;;;;;;4970856;28;20307;-74
2021/01/23 10:50:21;;;;;;;16.67;8.63;;;4.30;99.90;;;;;;4968113;28;20304;-77
2021/01/23 10:52:51;;;;;;;21.80;10.47;;;4.20;99.90;;;;;;4974845;28;20857;-75
2021/01/23 10:55:17;;;;;;;20.67;9.57;;;4.10;99.90;;;;;;4977708;28;20603;-74
2021/01/23 10:57:43;;;;;;;21.37;10.70;;;4.20;99.90;;;;;;4972011;28;20294;-76
2021/01/23 11:00:11;;;;;;;23.00;9.53;;;4.10;99.90;;;;;;4974365;28;20205;-77
2021/01/23 11:02:38;;;;;;;22.57;10.60;;;4.20;99.90;;;;;;4973104;28;20363;-77
2021/01/23 11:05:06;;;;;;;25.77;10.57;;;4.20;99.90;;;;;;4978991;28;20212;-75
2021/01/23 11:07:33;;;;;;;20.57;9.43;;;4.20;99.90;;;;;;4977689;28;20247;-77
2021/01/23 11:10:00;;;;;;;16.27;8.73;;;4.20;99.90;;;;;;4979569;28;20215;-74
2021/01/23 11:12:26;;;;;;;19.33;10.10;;;4.10;99.90;;;;;;4977247;28;20259;-77
2021/01/23 11:14:52;;;;;;;18.60;9.50;;;4.10;99.90;;;;;;4977581;28;20288;-78
2021/01/23 11:17:19;;;;;;;19.87;8.67;;;4.10;99.90;;;;;;4979081;28;20304;-75
2021/01/23 11:19:45;;;;;;;19.87;10.10;;;4.00;99.90;;;;;;4981024;28;20654;-75
2021/01/23 11:22:12;;;;;;;17.73;9.67;;;4.00;99.90;;;;;;4970520;28;20706;-79
2021/01/23 11:24:40;;;;;;;17.53;9.17;;;4.10;99.90;;;;;;4973785;28;20292;-76
2021/01/23 11:27:06;;;;;;;21.50;9.77;;;4.20;99.90;;;;;;4973847;28;20599;-73
2021/01/23 11:29:34;;;;;;;20.93;10.27;;;4.30;99.90;;;;;;4976448;28;20661;-77
2021/01/23 11:32:00;;;;;;;17.57;8.47;;;4.30;99.90;;;;;;4972428;28;20228;-76
2021/01/23 11:34:27;;;;;;;18.23;10.00;;;4.30;99.90;;;;;;4977604;28;20204;-76
2021/01/23 11:36:54;;;;;;;19.03;10.23;;;4.20;99.90;;;;;;4978131;28;20229;-75
2021/01/23 11:39:21;;;;;;;19.70;10.13;;;4.10;99.90;;;;;;4987272;28;20248;-76
2021/01/23 11:41:48;;;;;;;21.03;10.70;;;4.10;99.90;;;;;;4990847;28;20634;-76
2021/01/23 11:44:15;;;;;;;19.90;9.73;;;4.10;99.90;;;;;;4988116;28;20205;-76
2021/01/23 11:46:41;;;;;;;17.00;9.03;;;4.20;99.90;;;;;;4978788;28;20749;-75
2021/01/23 11:49:08;;;;;;;22.67;10.60;;;4.10;99.90;;;;;;4974309;28;20293;-77
2021/01/23 11:51:34;;;;;;;19.83;11.00;;;4.00;99.90;;;;;;4969307;28;20283;-76
2021/01/23 11:54:01;;;;;;;21.93;11.30;;;4.10;99.90;;;;;;4973873;28;20212;-75
2021/01/23 11:56:40;;;;;;;22.17;10.37;;;4.10;99.90;;;;;;4966232;28;20749;-76
2021/01/23 11:59:07;;;;;;;21.70;11.17;;;4.10;99.90;;;;;;4969648;28;20305;-76
2021/01/23 12:01:34;;;;;;;21.57;10.17;;;4.10;99.90;;;;;;4976461;28;20256;-76
2021/01/23 12:04:01;;;;;;;24.87;11.60;;;4.10;99.90;;;;;;4977478;28;20202;-76
2021/01/23 12:06:27;;;;;;;25.83;11.40;;;4.20;99.90;;;;;;4976061;28;20209;-76
2021/01/23 12:08:54;;;;;;;20.43;10.17;;;4.30;99.90;;;;;;4974316;28;20292;-76
2021/01/23 12:11:20;;;;;;;23.90;11.03;;;4.40;99.90;;;;;;4977163;28;20320;-76
2021/01/23 12:13:47;;;;;;;24.00;11.37;;;4.50;99.90;;;;;;4971839;28;20468;-76
2021/01/23 12:16:14;;;;;;;22.80;11.53;;;4.50;99.90;;;;;;4974444;28;20260;-76
2021/01/23 12:18:40;;;;;;;22.00;10.90;;;4.50;99.90;;;;;;4972441;28;20344;-74
2021/01/23 12:21:07;;;;;;;24.50;11.17;;;4.60;99.90;;;;;;4973172;28;20206;-75
2021/01/23 12:23:33;;;;;;;24.10;10.73;;;4.70;99.90;;;;;;4978076;28;20305;-75
2021/01/23 12:26:00;;;;;;;22.37;10.93;;;4.80;99.90;;;;;;4976496;28;20292;-76
2021/01/23 12:28:27;;;;;;;21.20;9.20;;;4.80;99.90;;;;;;4979111;28;20717;-75
2021/01/23 12:30:53;;;;;;;20.27;10.47;;;4.90;99.90;;;;;;4979347;28;20303;-73
2021/01/23 12:33:20;;;;;;;22.73;11.50;;;4.80;99.90;;;;;;4973802;28;20317;-74
2021/01/23 12:35:47;;;;;;;22.33;10.90;;;4.70;99.90;;;;;;4973372;28;21032;-75
2021/01/23 12:38:13;;;;;;;20.17;10.83;;;4.70;99.90;;;;;;4970922;28;20308;-76
2021/01/23 12:40:39;;;;;;;22.83;10.60;;;4.60;99.90;;;;;;4971287;28;20325;-74
2021/01/23 12:43:06;;;;;;;22.90;10.27;;;4.60;99.90;;;;;;4974822;28;20699;-75
2021/01/23 12:45:32;;;;;;;22.60;11.07;;;4.50;99.90;;;;;;4971605;28;20217;-75